createdAt,value
2018-02-06T00:01:56.706Z,18.10
2018-02-06T00:04:24.202Z,17.85
2018-02-06T00:06:51.720Z,18.33
2018-02-06T00:09:19.195Z,19.00
2018-02-06T00:11:46.661Z,17.25
2018-02-06T00:14:14.202Z,17.90
2018-02-06T00:16:41.662Z,18.65
2018-02-06T00:19:09.324Z,18.85
2018-02-06T00:21:36.810Z,17.90
2018-02-06T00:24:04.270Z,17.83
2018-02-06T00:26:31.761Z,17.15
2018-02-06T00:28:59.990Z,19.15
2018-02-06T00:31:27.722Z,18.70
2018-02-06T00:33:55.185Z,19.23
2018-02-06T00:36:22.692Z,18.48
2018-02-06T00:38:50.941Z,17.25
2018-02-06T00:41:18.410Z,18.87
2018-02-06T00:43:45.886Z,18.48
2018-02-06T00:46:14.114Z,16.62
2018-02-06T00:48:41.606Z,18.95
2018-02-06T00:51:09.838Z,17.90
2018-02-06T00:53:37.301Z,20.37
2018-02-06T00:56:04.802Z,18.75
2018-02-06T00:58:33.078Z,18.87
2018-02-06T01:01:01.318Z,17.40
2018-02-06T01:03:28.798Z,19.60
2018-02-06T01:05:56.358Z,18.92
2018-02-06T01:08:23.833Z,16.67
2018-02-06T01:10:52.074Z,17.60
2018-02-06T01:13:19.559Z,16.73
2018-02-06T01:15:47.802Z,15.95
2018-02-06T01:18:15.325Z,18.98
2018-02-06T01:20:42.882Z,18.10
2018-02-06T01:23:10.359Z,18.40
2018-02-06T01:25:37.822Z,17.80
2018-02-06T01:28:05.285Z,17.23
2018-02-06T01:30:32.766Z,16.08
2018-02-06T01:33:01.026Z,15.88
2018-02-06T01:35:28.494Z,17.50
2018-02-06T01:37:57.485Z,17.02
2018-02-06T01:40:25.007Z,16.10
2018-02-06T01:42:52.475Z,17.90
2018-02-06T01:45:20.000Z,17.05
2018-02-06T01:47:47.518Z,17.83
2018-02-06T01:50:15.019Z,17.27
2018-02-06T01:52:42.479Z,15.32
2018-02-06T01:55:09.968Z,17.15
2018-02-06T01:57:37.441Z,18.67
2018-02-06T02:00:04.927Z,17.42
2018-02-06T02:02:32.394Z,17.25
2018-02-06T02:05:00.809Z,16.77
2018-02-06T02:07:28.274Z,16.60
2018-02-06T02:09:55.739Z,14.87
2018-02-06T02:12:23.250Z,17.20
2018-02-06T02:14:50.703Z,18.70
2018-02-06T02:17:18.195Z,19.50
2018-02-06T02:19:45.689Z,18.33
2018-02-06T02:22:13.937Z,16.65
2018-02-06T02:24:41.405Z,18.83
2018-02-06T02:27:08.909Z,18.70
2018-02-06T02:29:36.374Z,17.95
2018-02-06T02:32:03.849Z,18.10
2018-02-06T02:34:31.335Z,19.23
2018-02-06T02:36:58.810Z,18.05
2018-02-06T02:39:27.181Z,19.65
2018-02-06T04:40:04.956Z,17.85
2018-02-06T04:42:32.424Z,17.87
2018-02-06T04:44:59.886Z,17.23
2018-02-06T04:47:27.374Z,17.58
2018-02-06T04:49:54.838Z,17.70
2018-02-06T04:52:22.325Z,15.60
2018-02-06T04:54:49.900Z,17.05
2018-02-06T04:57:17.369Z,15.57
2018-02-06T04:59:44.842Z,15.05
2018-02-06T05:02:12.315Z,15.40
2018-02-06T05:04:39.882Z,16.05
2018-02-06T05:07:07.350Z,15.05
2018-02-06T05:09:35.617Z,15.75
2018-02-06T05:12:03.077Z,16.20
2018-02-06T05:14:31.328Z,14.60
2018-02-06T05:16:58.810Z,14.45
2018-02-06T05:19:27.038Z,15.65
2018-02-06T05:21:54.517Z,14.50
2018-02-06T05:24:21.993Z,14.95
2018-02-06T05:26:49.491Z,14.70
2018-02-06T05:29:17.052Z,15.48
2018-02-06T05:31:44.523Z,15.68
2018-02-06T05:34:11.991Z,16.27
2018-02-06T05:36:39.489Z,16.08
2018-02-06T05:39:07.726Z,16.55
2018-02-06T05:41:35.218Z,14.80
2018-02-06T05:44:03.445Z,15.02
2018-02-06T05:46:30.942Z,16.10
2018-02-06T05:48:58.407Z,16.15
2018-02-06T05:51:26.654Z,16.50
2018-02-06T05:53:54.133Z,16.80
2018-02-06T05:56:22.370Z,17.40
2018-02-06T05:58:49.849Z,16.50
2018-02-06T06:01:17.360Z,15.95
2018-02-06T06:03:44.921Z,15.38
2018-02-06T06:06:12.395Z,16.75
2018-02-06T06:08:39.882Z,17.83
2018-02-06T06:11:08.137Z,18.08
2018-02-06T06:13:35.590Z,17.60
2018-02-06T06:16:03.078Z,17.23
2018-02-06T06:18:30.626Z,17.48
2018-02-06T06:20:58.110Z,17.15
2018-02-06T06:23:26.337Z,18.40
2018-02-06T06:25:53.823Z,18.17
2018-02-06T06:28:21.287Z,17.12
2018-02-06T06:30:49.550Z,16.90
2018-02-06T06:33:17.023Z,17.65
2018-02-06T06:35:45.279Z,18.30
2018-02-06T06:38:12.745Z,17.70
2018-02-06T06:40:40.986Z,17.85
2018-02-06T06:43:08.474Z,15.57
2018-02-06T06:45:36.034Z,17.95
2018-02-06T06:48:04.285Z,14.23
2018-02-06T06:50:31.771Z,16.80
2018-02-06T06:53:00.021Z,16.20
2018-02-06T06:55:27.487Z,15.20
2018-02-06T06:57:54.974Z,17.27
2018-02-06T07:00:23.230Z,16.45
2018-02-06T07:02:50.693Z,17.87
2018-02-06T07:05:18.945Z,17.70
2018-02-06T07:07:46.417Z,16.20
2018-02-06T07:10:14.665Z,16.58
2018-02-06T07:12:42.193Z,17.70
2018-02-06T07:15:09.680Z,17.08
2018-02-06T07:17:37.150Z,16.58
2018-02-06T07:20:04.645Z,16.00
2018-02-06T07:22:32.865Z,16.75
2018-02-06T07:25:00.334Z,17.17
2018-02-06T07:27:27.814Z,17.35
2018-02-06T07:29:56.046Z,16.30
2018-02-06T07:32:23.522Z,16.85
2018-02-06T07:34:50.997Z,17.48
2018-02-06T07:37:19.249Z,17.25
2018-02-06T07:39:46.717Z,15.98
2018-02-06T07:42:14.234Z,18.48
2018-02-06T07:44:41.699Z,16.75
2018-02-06T07:47:09.168Z,17.55
2018-02-06T07:49:36.651Z,17.58
2018-02-06T07:52:04.973Z,17.83
2018-02-06T07:54:32.455Z,15.95
2018-02-06T07:56:59.927Z,17.25
2018-02-06T07:59:28.937Z,16.58
2018-02-06T08:01:56.435Z,17.70
2018-02-06T08:04:23.891Z,16.15
2018-02-06T08:06:51.386Z,17.90
2018-02-06T08:09:18.970Z,16.52
2018-02-06T08:11:47.209Z,16.62
2018-02-06T08:14:14.686Z,15.18
2018-02-06T08:16:42.173Z,16.15
2018-02-06T08:19:10.418Z,17.40
2018-02-06T08:21:37.882Z,16.02
2018-02-06T08:24:06.145Z,16.90
2018-02-06T08:26:33.612Z,15.27
2018-02-06T08:29:01.167Z,15.18
2018-02-06T08:31:28.636Z,15.60
2018-02-06T08:33:56.958Z,14.15
2018-02-06T08:36:24.529Z,15.10
2018-02-06T08:38:51.997Z,14.83
2018-02-06T08:41:19.462Z,14.90
2018-02-06T08:43:46.930Z,14.70
2018-02-06T08:46:14.423Z,16.40
2018-02-06T08:48:43.585Z,15.37
2018-02-06T08:51:11.055Z,16.27
2018-02-06T08:53:39.290Z,15.57
2018-02-06T08:56:06.759Z,14.10
2018-02-06T08:58:34.218Z,14.40
2018-02-06T09:01:01.706Z,17.50
2018-02-06T09:03:29.934Z,14.93
2018-02-06T09:05:57.409Z,15.67
2018-02-06T09:08:24.901Z,14.60
2018-02-06T09:10:52.377Z,14.70
2018-02-06T09:13:19.853Z,15.27
2018-02-06T09:15:47.317Z,14.40
2018-02-06T09:18:14.805Z,15.07
2018-02-06T09:20:43.035Z,15.70
2018-02-06T09:23:10.525Z,16.13
2018-02-06T09:25:38.003Z,16.20
2018-02-06T09:28:06.229Z,15.20
2018-02-06T09:30:33.714Z,15.83
2018-02-06T09:33:01.224Z,15.87
2018-02-06T09:35:28.715Z,14.10
2018-02-06T09:37:56.186Z,15.37
2018-02-06T09:40:23.662Z,14.33
2018-02-06T09:42:51.889Z,15.50
2018-02-06T09:45:19.369Z,17.50
2018-02-06T09:47:46.851Z,15.97
2018-02-06T09:50:15.078Z,15.43
2018-02-06T09:52:42.550Z,17.00
2018-02-06T09:55:10.034Z,16.80
2018-02-06T09:57:38.258Z,16.90
2018-02-06T10:00:05.742Z,17.00
2018-02-06T10:02:33.232Z,16.30
2018-02-06T10:05:01.479Z,16.02
2018-02-06T10:07:29.046Z,16.50
2018-02-06T10:09:57.309Z,15.50
2018-02-06T10:12:24.785Z,16.50
2018-02-06T10:14:53.024Z,15.73
2018-02-06T10:17:20.506Z,15.77
2018-02-06T10:19:48.759Z,16.67
2018-02-06T10:22:16.242Z,17.02
2018-02-06T10:24:44.478Z,15.07
2018-02-06T10:27:11.966Z,17.17
2018-02-06T10:29:39.450Z,16.80
2018-02-06T10:32:06.918Z,16.50
2018-02-06T10:34:34.418Z,16.20
2018-02-06T10:37:01.877Z,14.83
2018-02-06T10:39:29.401Z,16.05
2018-02-06T10:41:56.870Z,15.73
2018-02-06T10:44:24.354Z,15.85
2018-02-06T10:46:53.321Z,16.65
2018-02-06T10:49:20.809Z,16.77
2018-02-06T10:51:48.375Z,15.23
2018-02-06T10:54:15.857Z,15.75
2018-02-06T10:56:43.368Z,15.68
2018-02-06T10:59:11.234Z,15.32
2018-02-06T11:01:38.720Z,15.95
2018-02-06T11:04:06.967Z,15.97
2018-02-06T11:06:34.536Z,16.40
2018-02-06T11:09:02.006Z,17.40
2018-02-06T11:11:30.254Z,17.20
2018-02-06T11:13:57.723Z,17.67
2018-02-06T11:16:25.223Z,17.75
2018-02-06T11:18:52.682Z,17.12
2018-02-06T11:21:20.147Z,17.57
2018-02-06T11:23:47.631Z,17.97
2018-02-06T11:26:15.102Z,16.73
2018-02-06T11:28:44.089Z,19.43
2018-02-06T11:31:11.558Z,17.30
2018-02-06T11:33:39.028Z,17.80
2018-02-06T11:36:07.279Z,17.10
2018-02-06T11:38:34.764Z,16.63
2018-02-06T11:41:02.257Z,16.80
2018-02-06T11:43:29.737Z,16.83
2018-02-06T11:45:57.214Z,15.57
2018-02-06T11:48:24.705Z,17.33
2018-02-06T11:50:52.931Z,18.33
2018-02-06T11:53:20.406Z,15.60
2018-02-06T11:55:47.874Z,17.97
2018-02-06T11:58:16.119Z,19.10
2018-02-06T12:00:43.601Z,18.13
2018-02-06T12:03:11.081Z,16.13
2018-02-06T12:05:39.356Z,17.00
2018-02-06T12:08:07.581Z,18.03
2018-02-06T12:10:35.040Z,18.47
2018-02-06T12:13:02.520Z,16.67
2018-02-06T12:15:29.981Z,18.10
2018-02-06T12:17:58.227Z,17.50
2018-02-06T12:20:25.706Z,18.23
2018-02-06T12:22:53.212Z,19.20
2018-02-06T12:25:20.744Z,18.30
2018-02-06T12:27:49.012Z,17.77
2018-02-06T12:30:16.464Z,18.50
2018-02-06T12:32:44.706Z,16.70
2018-02-06T12:35:12.190Z,17.67
2018-02-06T12:37:39.645Z,15.57
2018-02-06T12:40:07.101Z,17.73
2018-02-06T12:42:35.345Z,16.40
2018-02-06T12:45:02.831Z,17.20
2018-02-06T12:47:30.316Z,17.50
2018-02-06T12:49:57.790Z,18.00
2018-02-06T12:52:25.265Z,19.70
2018-02-06T12:54:52.808Z,17.50
2018-02-06T12:57:20.279Z,18.63
2018-02-06T12:59:47.743Z,19.63
2018-02-06T13:02:15.613Z,19.43
2018-02-06T13:04:43.073Z,18.87
2018-02-06T13:07:10.526Z,19.67
2018-02-06T13:09:38.007Z,19.20
2018-02-06T13:12:06.230Z,18.90
2018-02-06T13:14:33.714Z,19.97
2018-02-06T13:17:01.182Z,19.00
2018-02-06T13:19:28.696Z,18.90
2018-02-06T13:21:56.150Z,20.53
2018-02-06T13:24:23.623Z,19.47
2018-02-06T13:26:51.114Z,18.07
2018-02-06T13:29:18.582Z,19.13
2018-02-06T13:31:46.830Z,18.80
2018-02-06T13:34:14.286Z,21.03
2018-02-06T13:36:41.778Z,19.77
2018-02-06T13:39:10.051Z,19.67
2018-02-06T13:41:38.303Z,20.20
2018-02-06T13:44:05.771Z,18.10
2018-02-06T13:46:33.230Z,19.57
2018-02-06T13:49:01.476Z,19.83
2018-02-06T13:51:28.958Z,20.73
2018-02-06T13:53:56.421Z,19.80
2018-02-06T13:56:24.678Z,19.80
2018-02-06T13:58:52.150Z,19.97
2018-02-06T14:01:20.381Z,19.80
2018-02-06T14:03:47.862Z,19.97
2018-02-06T14:06:15.342Z,20.97
2018-02-06T14:08:43.577Z,22.07
2018-02-06T14:11:11.059Z,20.93
2018-02-06T14:13:38.537Z,20.90
2018-02-06T14:16:06.816Z,22.47
2018-02-06T14:18:35.043Z,20.90
2018-02-06T14:21:02.513Z,20.37
2018-02-06T14:23:31.514Z,25.00
2018-02-06T14:25:58.994Z,23.53
2018-02-06T14:28:27.241Z,21.83
2018-02-06T14:30:54.722Z,21.27
2018-02-06T14:33:22.965Z,21.20
2018-02-06T14:35:50.431Z,20.37
2018-02-06T14:38:21.574Z,21.13
2018-02-06T14:40:49.043Z,21.00
2018-02-06T14:43:17.293Z,21.73
2018-02-06T14:45:44.758Z,23.50
2018-02-06T14:48:12.234Z,20.70
2018-02-06T14:50:40.469Z,21.73
2018-02-06T14:53:07.938Z,21.17
2018-02-06T14:55:35.442Z,19.07
2018-02-06T14:58:03.682Z,21.03
2018-02-06T15:00:31.158Z,22.20
2018-02-06T15:02:59.402Z,20.27
2018-02-06T15:05:26.901Z,19.17
2018-02-06T15:07:54.382Z,19.97
2018-02-06T15:10:21.862Z,20.57
2018-02-06T15:12:49.322Z,20.47
2018-02-06T15:15:16.799Z,22.13
2018-02-06T15:17:44.290Z,19.73
2018-02-06T15:20:11.771Z,20.63
2018-02-06T15:22:39.261Z,20.53
2018-02-06T15:25:06.730Z,20.73
2018-02-06T15:27:34.340Z,19.73
2018-02-06T15:30:01.805Z,21.33
2018-02-06T15:32:29.301Z,21.93
2018-02-06T15:34:56.766Z,20.40
2018-02-06T15:37:25.014Z,20.20
2018-02-06T15:39:52.503Z,20.60
2018-02-06T15:42:20.743Z,20.73
2018-02-06T15:44:48.223Z,21.33
2018-02-06T15:47:15.724Z,20.75
2018-02-06T15:49:43.206Z,20.27
2018-02-06T15:52:10.830Z,20.80
2018-02-06T15:54:38.323Z,21.30
2018-02-06T15:57:05.801Z,19.95
2018-02-06T15:59:33.279Z,19.70
2018-02-06T16:02:01.555Z,19.93
2018-02-06T16:04:29.802Z,19.75
2018-02-06T16:06:57.291Z,20.80
2018-02-06T16:09:25.531Z,20.13
2018-02-06T16:11:53.022Z,20.27
2018-02-06T16:14:21.298Z,20.80
2018-02-06T16:16:48.722Z,21.33
2018-02-06T16:19:16.304Z,21.70
2018-02-06T16:21:43.810Z,19.93
2018-02-06T16:24:11.286Z,22.57
2018-02-06T16:26:38.746Z,21.50
2018-02-06T16:29:06.241Z,21.67
2018-02-06T16:31:34.513Z,22.58
2018-02-06T16:34:02.760Z,21.83
2018-02-06T16:36:30.241Z,21.98
2018-02-06T16:38:58.496Z,21.83
2018-02-06T16:41:25.993Z,21.27
2018-02-06T16:43:54.101Z,22.65
2018-02-06T16:46:21.607Z,24.30
2018-02-06T16:48:51.688Z,23.77
2018-02-06T16:51:20.549Z,23.55
2018-02-06T16:53:48.035Z,24.60
2018-02-06T16:56:15.522Z,22.75
2018-02-06T16:58:43.793Z,23.12
2018-02-06T17:01:12.028Z,24.77
2018-02-06T17:03:39.502Z,24.02
2018-02-06T17:06:06.991Z,24.08
2018-02-06T17:08:35.258Z,24.12
2018-02-06T17:11:02.710Z,24.45
2018-02-06T17:13:30.198Z,22.45
2018-02-06T17:15:58.267Z,22.25
2018-02-06T17:18:27.286Z,24.65
2018-02-06T17:20:54.788Z,24.42
2018-02-06T17:23:22.274Z,23.50
2018-02-06T17:25:49.793Z,23.70
2018-02-06T17:28:17.287Z,25.65
2018-02-06T17:30:47.009Z,25.30
2018-02-06T17:33:15.599Z,23.90
2018-02-06T17:35:43.086Z,22.35
2018-02-06T17:38:10.570Z,24.33
2018-02-06T17:40:38.832Z,22.40
2018-02-06T17:43:06.320Z,23.80
2018-02-06T17:45:34.551Z,22.90
2018-02-06T17:48:02.128Z,22.50
2018-02-06T17:50:31.294Z,23.25
2018-02-06T17:52:58.758Z,23.40
2018-02-06T17:55:26.246Z,25.15
2018-02-06T17:57:54.473Z,24.33
2018-02-06T18:00:21.985Z,21.87
2018-02-06T18:02:50.217Z,23.38
2018-02-06T18:05:17.719Z,23.65
2018-02-06T18:07:45.961Z,24.12
2018-02-06T18:10:13.462Z,23.50
2018-02-06T18:12:40.921Z,26.05
2018-02-06T18:15:08.412Z,23.70
2018-02-06T18:17:35.894Z,23.50
2018-02-06T18:20:04.886Z,24.02
2018-02-06T18:22:32.390Z,21.48
2018-02-06T18:24:59.859Z,22.62
2018-02-06T18:27:27.350Z,20.70
2018-02-06T18:29:54.824Z,21.92
2018-02-06T18:32:23.073Z,21.50
2018-02-06T18:34:50.556Z,20.70
2018-02-06T18:37:18.045Z,19.45
2018-02-06T18:39:45.546Z,20.15
2018-02-06T18:42:13.047Z,20.40
2018-02-06T18:44:41.301Z,20.83
2018-02-06T18:47:08.861Z,20.55
2018-02-06T18:49:37.146Z,22.42
2018-02-06T18:52:04.609Z,20.37
2018-02-06T18:54:32.085Z,20.83
2018-02-06T18:56:59.921Z,21.17
2018-02-06T18:59:28.162Z,22.52
2018-02-06T19:01:55.657Z,21.08
2018-02-06T19:04:23.910Z,21.45
2018-02-06T19:06:51.501Z,19.98
2018-02-06T19:09:19.778Z,20.60
2018-02-06T19:11:47.270Z,20.42
2018-02-06T19:14:14.738Z,19.37
2018-02-06T19:16:42.222Z,21.55
2018-02-06T19:19:10.796Z,20.73
2018-02-06T19:21:38.269Z,21.48
2018-02-06T19:24:06.526Z,20.98
2018-02-06T19:26:33.994Z,20.58
2018-02-06T19:29:02.993Z,19.50
2018-02-06T19:31:31.217Z,20.40
2018-02-06T19:33:58.697Z,20.05
2018-02-06T19:36:26.190Z,21.55
2018-02-06T19:38:54.422Z,19.50
2018-02-06T19:41:21.956Z,20.15
2018-02-06T19:43:49.458Z,20.17
2018-02-06T19:46:16.923Z,19.58
2018-02-06T19:48:44.386Z,21.00
2018-02-06T19:51:12.638Z,18.62
2018-02-06T19:53:40.908Z,19.70
2018-02-06T19:56:08.381Z,19.33
2018-02-06T19:58:35.881Z,19.93
2018-02-06T20:01:03.354Z,19.75
2018-02-06T20:03:30.825Z,19.12
2018-02-06T20:05:58.330Z,19.40
2018-02-06T20:08:26.575Z,20.88
2018-02-06T20:10:54.081Z,22.52
2018-02-06T20:13:21.650Z,21.40
2018-02-06T20:15:49.109Z,21.62
2018-02-06T20:18:16.599Z,19.85
2018-02-06T20:20:44.082Z,21.60
2018-02-06T20:23:12.352Z,20.00
2018-02-06T20:25:39.843Z,18.80
2018-02-06T20:28:08.262Z,18.48
2018-02-06T20:30:35.762Z,18.05
2018-02-06T20:33:05.031Z,21.05
2018-02-06T20:35:34.334Z,20.60
2018-02-06T20:38:01.809Z,22.33
2018-02-06T20:40:30.061Z,19.75
2018-02-06T20:42:57.542Z,20.70
2018-02-06T20:45:25.787Z,21.00
2018-02-06T20:47:53.786Z,20.27
2018-02-06T20:50:25.771Z,18.85
2018-02-06T20:52:53.824Z,20.37
2018-02-06T20:55:21.317Z,19.27
2018-02-06T20:57:49.368Z,18.95
2018-02-06T21:00:16.863Z,20.85
2018-02-06T21:02:44.345Z,19.45
2018-02-06T21:05:12.618Z,18.67
2018-02-06T21:07:40.122Z,17.87
2018-02-06T21:10:07.641Z,18.23
2018-02-06T21:12:35.894Z,19.42
2018-02-06T21:15:03.379Z,18.10
2018-02-06T21:17:31.641Z,18.45
2018-02-06T21:19:59.154Z,18.40
2018-02-06T21:22:26.656Z,18.30
2018-02-06T21:24:54.119Z,18.58
2018-02-06T21:27:22.383Z,18.00
2018-02-06T21:29:49.871Z,18.65
2018-02-06T21:32:17.382Z,18.90
2018-02-06T21:34:44.873Z,18.70
2018-02-06T21:37:13.130Z,18.60
2018-02-06T21:39:40.616Z,19.60
2018-02-06T21:42:08.087Z,19.70
2018-02-06T21:44:35.601Z,20.15
2018-02-06T21:47:03.075Z,18.30
2018-02-06T21:49:31.400Z,18.80
2018-02-06T21:51:58.882Z,19.60
2018-02-06T21:54:26.369Z,22.10
2018-02-06T21:56:54.610Z,19.27
2018-02-06T21:59:22.090Z,20.98
2018-02-06T22:01:50.342Z,20.25
2018-02-06T22:04:17.846Z,19.80
2018-02-06T22:06:45.322Z,20.50
2018-02-06T22:09:12.838Z,20.23
2018-02-06T22:11:41.078Z,20.15
2018-02-06T22:14:08.566Z,21.98
2018-02-06T22:16:36.835Z,19.73
2018-02-06T22:19:04.310Z,20.73
2018-02-06T22:21:32.562Z,20.15
2018-02-06T22:24:00.043Z,21.62
2018-02-06T22:26:28.301Z,22.77
2018-02-06T22:28:56.765Z,21.50
2018-02-06T22:31:24.250Z,20.10
2018-02-06T22:33:52.493Z,21.35
2018-02-06T22:36:21.263Z,20.42
2018-02-06T22:38:48.734Z,21.40
2018-02-06T22:41:16.330Z,22.17
2018-02-06T22:43:44.562Z,20.10
2018-02-06T22:46:12.102Z,20.42
2018-02-06T22:48:39.815Z,22.65
2018-02-06T22:51:07.297Z,21.27
2018-02-06T22:53:35.554Z,21.37
2018-02-06T22:56:03.014Z,20.25
2018-02-06T22:58:31.267Z,21.67
2018-02-06T23:00:59.317Z,21.55
2018-02-06T23:03:26.815Z,22.37
2018-02-06T23:05:55.066Z,21.83
2018-02-06T23:08:22.547Z,20.17
2018-02-06T23:10:51.613Z,20.08
2018-02-06T23:13:19.682Z,21.50
2018-02-06T23:15:47.156Z,21.33
2018-02-06T23:18:15.436Z,20.65
2018-02-06T23:20:42.925Z,20.58
2018-02-06T23:23:10.394Z,21.35
2018-02-06T23:25:37.883Z,21.58
2018-02-06T23:28:05.369Z,21.35
2018-02-06T23:30:33.619Z,21.67
2018-02-06T23:33:01.083Z,21.60
2018-02-06T23:35:28.586Z,19.65
2018-02-06T23:37:56.086Z,20.40
2018-02-06T23:40:23.573Z,20.15
2018-02-06T23:42:51.821Z,19.58
2018-02-06T23:45:19.522Z,19.42
2018-02-06T23:47:47.059Z,19.50
2018-02-06T23:50:15.291Z,19.92
2018-02-06T23:52:42.770Z,20.08
2018-02-06T23:55:10.242Z,21.85
2018-02-06T23:57:37.738Z,21.58
